Sand Creek, Michigan
Current Conditions -  °F | °C
As of 5:53 AM on Sunday 23 Nov 2014 (Local Time) from KADG Reporting Station
Light Rain Light Rain  
Wind Chill: 40°   Ceiling: 2800
Heat Index: 44°   Visibility: 8mi
Dew Point: 42°   Wind: 8mph
Humidity: 93%   Direction: 200°SSW
Pressure: 29.94"   Gusts: NA
Location:  41.83°N, 84.1°W
Report Text: KADG 231053Z AUTO 20007KT 8SM -RA OVC028 07/06 A2994 RMK AO2 RAB52 SLP146 P0000 T00670056
Loading
Personal Weather Stations






























Interactive Weather Map New forecast layout! Learn more

10-Day Weather Forecast

Advertisements
Track Severe Weather on mobile